Flight Track Log - Related Links

Times and Time Zones

All times are in EDT time to prevent confusion due to time zone crossing. See the GJS6221 flight status page for this flight to view local times or setup timezone preferences in your user account.

Time Position Orientation Groundspeed Altitude Reporting Facility
EDT Latitude Longitude Course Direction KTS MPH feet Rate Location/Type
Thu 04:00:56 PM 44.4917 -73.2578 267° West 176 203 4,500  Level Boston Center
Thu 04:01:56 PM 44.4228 -73.2772 191° South 198 228 7,100 2,800 Climbing Boston Center
Thu 04:02:56 PM 44.3456 -73.3022 193° South 259 298 10,100 2,450 Climbing Boston Center
Thu 04:03:56 PM 44.2433 -73.3325 192° South 324 373 12,000 2,100 Climbing Boston Center
Thu 04:04:56 PM 44.1450 -73.3658 194° South 364 419 14,300 2,300 Climbing Boston Center
Thu 04:05:00 PM 43.8735 -73.3766 195° South  Level FlightAware Approximate
Thu 04:05:56 PM 44.0386 -73.3989 193° South 385 443 16,600  Level Boston Center
Thu 04:06:56 PM 43.9300 -73.4347 193° South 395 455 18,400 1,850 Climbing Boston Center
Thu 04:07:56 PM 43.8169 -73.4703 193° South 405 466 20,300 1,750 Climbing Boston Center
Thu 04:08:56 PM 43.7000 -73.5083 193° South 414 476 21,900 850 Climbing Boston Center
Thu 04:09:56 PM 43.5789 -73.5464 193° South 434 499 22,000 50 Climbing Boston Center
Thu 04:10:56 PM 43.4575 -73.5814 192° South 439 505 22,000  Level Boston Center
Thu 04:11:56 PM 43.3383 -73.6192 193° South 444 511 22,000  Level Boston Center
Thu 04:12:56 PM 43.2192 -73.6594 194° South 444 511 22,000  Level Boston Center
Thu 04:13:56 PM 43.1000 -73.6969 193° South 444 511 22,000  Level Boston Center
Thu 04:14:56 PM 42.9808 -73.7369 194° South 444 511 22,000 -45 Level Boston Center
Thu 04:16:08 PM 42.8636 -73.7686 191° South 444 511 21,900  Descending Boston Center
Thu 04:17:08 PM 42.7194 -73.7994 189° South 433 498 22,000 -100 Climbing Boston Center
Thu 04:18:08 PM 42.5989 -73.7797 173° South 426 490 21,700 -550 Descending Boston Center
Thu 04:19:08 PM 42.4803 -73.7547 171° South 431 496 20,900 -850 Descending Boston Center
Thu 04:20:08 PM 42.3578 -73.7297 171° South 438 504 20,000 -950 Descending Boston Center
Thu 04:21:08 PM 42.2411 -73.7047 171° South 433 498 19,000 -1,000 Descending Boston Center
Thu 04:22:08 PM 42.1267 -73.6886 174° South 428 493 18,000 -500 Descending Boston Center
Thu 04:23:08 PM 42.0139 -73.7169 191° South 414 476 18,000  Level Boston Center
Thu 04:24:08 PM 41.9178 -73.7458 193° South 407 468 18,000 -1,000 Level Boston Center
Thu 04:25:08 PM 41.7967 -73.7683 188° South 407 468 16,000 -1,850 Descending Boston Center
Thu 04:26:08 PM 41.7028 -73.7747 183° South 394 453 14,300 -1,721 Descending Boston Center
Thu 04:27:10 PM 41.5833 -73.7833 183° South 350 403 12,500 -1,603 Descending New York TRACON
Thu 04:28:04 PM 41.5000 -73.7833 180° South 316 364 11,200 -1,316 Descending New York TRACON
Thu 04:29:04 PM 41.4167 -73.8000 189° South 296 341 10,000 -1,250 Descending New York TRACON
Thu 04:30:04 PM 41.3333 -73.8000 180° South 289 333 8,700 -950 Descending New York TRACON
Thu 04:31:04 PM 41.2833 -73.7333 135° Southeast 278 320 8,100 -526 Descending New York TRACON
Thu 04:31:58 PM 41.2167 -73.6833 151° Southeast 276 318 7,700 -789 Descending New York TRACON
Thu 04:32:58 PM 41.1500 -73.6667 169° South 279 321 6,600 -1,100 Descending New York TRACON
Thu 04:33:58 PM 41.0667 -73.6667 180° South 271 312 5,500 -1,190 Descending New York TRACON
Thu 04:35:04 PM 41.0000 -73.7000 201° Southwest 254 292 4,100 -850 Descending New York TRACON
Thu 04:35:58 PM 40.9500 -73.7333 207° Southwest 209 241 3,800 -650 Descending New York TRACON
Thu 04:37:04 PM 40.9000 -73.7667 207° Southwest 190 219 2,800 -1,000 Descending New York TRACON
Thu 04:37:58 PM 40.8667 -73.8167 229° Southwest 189 217 1,800 -1,000 Descending New York TRACON
Thu 04:38:58 PM 40.8167 -73.8333 194° South 143 165 900 -900 Descending New York TRACON

Login

Don't have an account? Register now (free) for customized features, flight alerts, and more!